Time;durP1;ratioP1;P1;durP2;ratioP2;P2;SDS_P1;SDS_P2;PMS_P1;PMS_P2;Temp;Humidity;BMP_temperature;BMP_pressure;BME280_temperature;BME280_humidity;BME280_pressure;Samples;Min_cycle;Max_cycle;Signal;HPM_P1;HPM_P2
2021/10/28 00:14:24;;;;;;;;;23.25;20.50;;;;;10.24;80.70;101700.69;5014937;28;45486;-70
2021/10/28 00:16:51;;;;;;;;;18.00;15.50;;;;;10.19;80.40;101691.13;5015048;28;47135;-70
2021/10/28 00:19:17;;;;;;;;;22.50;17.25;;;;;10.18;80.64;101696.44;5015009;28;46017;-71
2021/10/28 00:21:43;;;;;;;;;17.50;16.50;;;;;10.17;80.87;101689.41;5014823;28;45487;-71
2021/10/28 00:24:11;;;;;;;;;17.50;17.25;;;;;10.16;80.56;101685.94;5015127;28;45452;-71
2021/10/28 00:26:38;;;;;;;;;17.25;15.75;;;;;10.13;80.86;101683.41;5014567;28;47386;-70
2021/10/28 00:29:07;;;;;;;;;18.25;15.50;;;;;10.12;80.81;101681.66;5014237;28;45440;-70
2021/10/28 00:31:35;;;;;;;;;16.00;14.75;;;;;10.11;80.87;101671.19;5014374;28;45610;-70
2021/10/28 00:34:01;;;;;;;;;18.25;16.00;;;;;10.10;80.63;101667.72;5015222;28;45491;-71
2021/10/28 00:36:27;;;;;;;;;25.00;19.75;;;;;10.10;80.48;101669.47;5015154;28;46393;-71
2021/10/28 00:38:54;;;;;;;;;26.25;20.00;;;;;10.06;80.86;101660.81;5014529;28;45653;-71
2021/10/28 00:41:22;;;;;;;;;18.25;16.00;;;;;10.05;80.89;101672.22;5014501;28;45573;-70
2021/10/28 00:43:56;;;;;;;;;17.00;17.00;;;;;10.01;81.11;101669.72;5014083;28;45336;-71
2021/10/28 00:46:24;;;;;;;;;20.00;15.50;;;;;10.00;80.75;101660.97;5014382;28;46042;-70
2021/10/28 00:48:50;;;;;;;;;22.00;18.25;;;;;10.00;80.78;101657.50;5015115;28;45463;-71
2021/10/28 00:51:19;;;;;;;;;18.25;15.00;;;;;9.96;80.92;101654.06;5015358;28;45560;-71
2021/10/28 00:53:45;;;;;;;;;18.00;14.75;;;;;9.93;80.59;101647.16;5014878;28;45533;-71
2021/10/28 00:56:10;;;;;;;;;18.25;16.50;;;;;9.93;80.96;101655.03;5012976;28;46768;-71
2021/10/28 00:58:36;;;;;;;;;20.75;15.75;;;;;9.90;80.91;101649.84;5012937;28;45406;-71
2021/10/28 01:01:03;;;;;;;;;20.25;15.00;;;;;9.90;81.27;101652.47;5013893;28;45604;-71
2021/10/28 01:03:29;;;;;;;;;18.00;14.50;;;;;9.88;80.63;101641.16;5014475;28;45425;-71
2021/10/28 01:05:55;;;;;;;;;13.25;12.75;;;;;9.88;80.66;101642.91;5013665;28;46463;-70
2021/10/28 01:08:21;;;;;;;;;15.75;14.00;;;;;9.86;81.20;101642.94;5013954;28;45303;-71
2021/10/28 01:10:48;;;;;;;;;23.00;20.25;;;;;9.84;81.16;101638.63;5013781;28;45522;-71
2021/10/28 01:13:17;;;;;;;;;22.50;15.00;;;;;9.79;80.98;101633.50;5014672;28;45518;-71
2021/10/28 01:15:43;;;;;;;;;22.00;18.25;;;;;9.81;81.03;101638.72;5014149;28;45576;-71
2021/10/28 01:18:10;;;;;;;;;20.50;17.00;;;;;9.79;80.96;101630.03;5014950;28;45348;-71
2021/10/28 01:20:38;;;;;;;;;24.25;18.00;;;;;9.69;80.79;101616.25;5014405;28;45478;-71
2021/10/28 01:23:04;;;;;;;;;20.25;18.25;;;;;9.75;81.04;101636.25;5013640;28;45520;-71
2021/10/28 01:25:30;;;;;;;;;21.50;19.00;;;;;9.75;80.82;101634.47;5013630;28;45558;-71
2021/10/28 01:27:56;;;;;;;;;18.75;16.50;;;;;9.73;80.81;101632.81;5013433;28;45488;-70
2021/10/28 01:30:21;;;;;;;;;17.50;13.50;;;;;9.72;80.89;101633.72;5014883;28;45496;-71
2021/10/28 01:32:47;;;;;;;;;20.25;18.25;;;;;9.70;80.92;101622.38;5013759;28;45498;-70
2021/10/28 01:35:13;;;;;;;;;13.50;12.25;;;;;9.69;81.09;101624.13;5013319;28;46662;-71
2021/10/28 01:37:44;;;;;;;;;27.50;19.00;;;;;9.65;81.02;101623.34;5014013;28;45667;-71
2021/10/28 01:40:10;;;;;;;;;18.00;13.75;;;;;9.63;80.65;101625.16;5012490;28;45630;-71
2021/10/28 01:42:37;;;;;;;;;21.00;13.50;;;;;9.62;80.74;101619.94;5013148;28;45582;-71
2021/10/28 01:45:03;;;;;;;;;23.00;14.50;;;;;9.60;80.87;101619.97;5012580;28;46420;-70
2021/10/28 01:47:28;;;;;;;;;17.25;15.00;;;;;9.59;80.82;101617.38;5013619;28;45474;-70
2021/10/28 01:49:54;;;;;;;;;19.75;15.50;;;;;9.54;80.88;101614.00;5013871;28;45837;-71
2021/10/28 01:52:19;;;;;;;;;18.67;18.00;;;;;9.52;80.81;101613.19;5012268;28;50885;-71
2021/10/28 01:54:44;;;;;;;;;19.75;16.75;;;;;9.50;80.85;101612.34;5013595;28;46518;-70
2021/10/28 01:57:17;;;;;;;;;19.75;16.00;;;;;9.47;81.13;101605.44;5013461;28;45472;-71
2021/10/28 01:59:43;;;;;;;;;14.75;14.00;;;;;9.47;80.74;101610.69;5012816;28;45476;-70
2021/10/28 02:02:08;;;;;;;;;21.25;16.75;;;;;9.35;80.99;101593.50;5013139;28;45433;-71
2021/10/28 02:04:34;;;;;;;;;20.75;16.25;;;;;9.44;80.89;101602.88;5013316;28;45633;-70
2021/10/28 02:07:01;;;;;;;;;22.00;18.00;;;;;9.41;81.13;101597.72;5013690;28;45317;-71
2021/10/28 02:09:26;;;;;;;;;15.50;13.75;;;;;9.38;80.87;101598.66;5013643;28;45422;-71
2021/10/28 02:11:51;;;;;;;;;21.00;18.25;;;;;9.38;81.13;101595.16;5013523;28;45273;-70
2021/10/28 02:14:17;;;;;;;;;19.25;16.75;;;;;9.35;81.14;101583.00;5016008;28;46479;-71
2021/10/28 02:16:43;;;;;;;;;26.00;16.00;;;;;9.35;81.16;101580.38;5016328;28;46902;-70
2021/10/28 02:19:09;;;;;;;;;18.75;18.75;;;;;9.34;81.29;101575.13;5017266;28;45380;-71
2021/10/28 02:21:34;;;;;;;;;27.50;19.75;;;;;9.35;81.51;101580.38;5017080;28;45469;-71
2021/10/28 02:23:59;;;;;;;;;22.00;19.25;;;;;9.35;82.08;101583.00;5017048;28;46992;-70
2021/10/28 02:26:26;;;;;;;;;16.25;14.50;;;;;9.31;82.40;101565.59;5016184;28;45518;-71
2021/10/28 02:28:52;;;;;;;;;17.50;17.50;;;;;9.40;82.85;101561.91;5016007;28;45639;-71
2021/10/28 02:31:17;;;;;;;;;19.75;18.00;;;;;9.39;82.99;101555.75;5016747;28;45539;-71
2021/10/28 02:33:43;;;;;;;;;18.50;17.25;;;;;9.43;82.14;101563.56;5016233;28;45878;-71
2021/10/28 02:36:08;;;;;;;;;18.75;17.25;;;;;9.38;82.30;101561.91;5017164;28;45541;-71
2021/10/28 02:38:33;;;;;;;;;15.00;14.25;;;;;9.39;82.02;101554.91;5015345;28;45688;-71
2021/10/28 02:40:59;;;;;;;;;29.50;24.75;;;;;9.36;nan;101555.00;5017268;28;45325;-70
2021/10/28 02:43:24;;;;;;;;;21.75;20.00;;;;;9.32;81.71;101546.34;5016548;28;45345;-71
2021/10/28 02:45:50;;;;;;;;;18.50;18.50;;;;;9.31;81.52;101546.38;4983688;28;45346;-71
2021/10/28 02:48:16;;;;;;;;;18.50;17.00;;;;;9.29;81.60;101554.28;5017531;28;45388;-70
2021/10/28 02:50:41;;;;;;;;;21.25;16.00;;;;;9.27;81.97;101545.59;5015981;28;45321;-70
2021/10/28 02:53:07;;;;;;;;;20.00;15.50;;;;;9.29;81.65;101550.78;5015733;28;46116;-70
2021/10/28 02:55:32;;;;;;;;;16.75;13.00;;;;;9.25;81.52;101551.78;5014870;28;45396;-71
2021/10/28 02:57:58;;;;;;;;;17.75;15.00;;;;;9.23;81.55;101546.56;5015351;28;45375;-71
2021/10/28 03:00:23;;;;;;;;;22.75;16.25;;;;;9.22;81.82;101542.22;5016380;28;47534;-71
2021/10/28 03:02:48;;;;;;;;;17.25;14.25;;;;;9.20;81.57;101537.91;5016074;28;46537;-70
2021/10/28 03:05:14;;;;;;;;;17.75;14.00;;;;;9.17;81.77;101532.75;5016076;28;45585;-71
2021/10/28 03:07:39;;;;;;;;;16.50;13.75;;;;;9.15;81.84;101536.25;5016042;28;45401;-71
2021/10/28 03:10:07;;;;;;;;;16.25;15.00;;;;;9.15;81.96;101538.03;5016128;28;45370;-71
2021/10/28 03:12:35;;;;;;;;;11.75;11.75;;;;;9.17;83.02;101535.34;5013704;28;46419;-70
2021/10/28 03:15:03;;;;;;;;;18.50;15.25;;;;;9.20;83.20;101535.28;5016133;28;45423;-71
2021/10/28 03:25:34;;;;;;;;;17.75;12.75;;;;;9.22;83.41;101523.00;5016395;28;45482;-71
2021/10/28 03:25:40;;;;;;;;;14.50;12.50;;;;;9.21;83.44;101514.28;5014503;28;45519;-71
2021/10/28 03:28:19;;;;;;;;;17.50;13.25;;;;;9.25;83.85;101517.69;5016521;28;45405;-71
2021/10/28 03:30:45;;;;;;;;;19.25;14.25;;;;;9.25;83.45;101515.06;5015938;28;45550;-71
2021/10/28 03:33:15;;;;;;;;;24.25;13.00;;;;;9.21;82.91;101511.66;5015589;28;45510;-71
2021/10/28 03:35:42;;;;;;;;;13.00;11.75;;;;;9.21;82.82;101506.41;5016179;28;45853;-71
2021/10/28 03:38:17;;;;;;;;;13.25;12.75;;;;;9.21;83.20;101502.91;5014958;28;45419;-71
2021/10/28 04:07:08;;;;;;;;;12.25;11.75;;;;;8.98;82.63;101488.63;4953405;28;46100;-70
2021/10/28 04:31:15;;;;;;;;;17.50;15.75;;;;;8.85;83.20;101489.81;4915809;28;45496;-71
2021/10/28 04:33:42;;;;;;;;;11.75;11.00;;;;;8.83;82.76;101489.00;4930221;28;45467;-71
2021/10/28 04:36:10;;;;;;;;;14.25;13.00;;;;;8.81;83.14;101482.91;4953497;28;46370;-71
2021/10/28 04:38:35;;;;;;;;;20.25;13.75;;;;;8.83;83.29;101491.63;4952638;28;45887;-71
2021/10/28 04:41:01;;;;;;;;;17.25;16.00;;;;;8.83;83.55;101486.38;4953616;28;45345;-70
2021/10/28 04:43:26;;;;;;;;;16.33;12.33;;;;;8.85;83.87;101489.81;4953215;28;49286;-71
2021/10/28 04:45:51;;;;;;;;;18.00;13.00;;;;;8.86;83.64;101491.53;4974349;28;45373;-71
2021/10/28 04:48:17;;;;;;;;;19.50;15.00;;;;;8.85;83.60;101490.66;4994871;28;45491;-71
2021/10/28 04:50:42;;;;;;;;;19.75;15.50;;;;;8.88;83.94;101492.38;4994427;28;45390;-71
2021/10/28 04:53:08;;;;;;;;;21.50;17.25;;;;;8.91;84.13;101492.28;4994426;28;45551;-71
2021/10/28 04:55:34;;;;;;;;;16.50;13.00;;;;;8.91;84.51;101486.16;4994126;28;46324;-70
2021/10/28 04:57:59;;;;;;;;;18.75;13.50;;;;;8.91;83.83;101489.66;4993889;28;45407;-71
2021/10/28 05:00:25;;;;;;;;;16.50;13.25;;;;;8.89;84.18;101496.69;4995265;28;45393;-71
2021/10/28 05:02:50;;;;;;;;;18.25;14.75;;;;;8.90;83.88;101498.41;4993385;28;45507;-71
2021/10/28 05:05:16;;;;;;;;;16.25;13.50;;;;;8.87;83.77;101495.84;4993722;28;45553;-71
2021/10/28 05:07:41;;;;;;;;;23.75;12.75;;;;;8.87;84.27;101506.34;4994761;28;45329;-71
2021/10/28 05:10:07;;;;;;;;;18.25;13.00;;;;;8.88;84.04;101497.59;4994937;28;45349;-71
2021/10/28 05:12:32;;;;;;;;;20.50;14.00;;;;;8.88;84.23;101495.84;4994628;28;45506;-70
2021/10/28 05:14:58;;;;;;;;;16.25;12.50;;;;;8.86;84.12;101492.38;4994507;28;45798;-70
2021/10/28 05:17:23;;;;;;;;;15.00;13.00;;;;;8.84;84.41;101488.09;4995132;28;46560;-70
2021/10/28 05:19:48;;;;;;;;;23.50;18.50;;;;;8.85;84.54;101489.81;5014398;28;45527;-71
2021/10/28 05:22:14;;;;;;;;;18.50;16.00;;;;;8.89;84.56;101500.19;5013766;28;46746;-71
2021/10/28 05:24:39;;;;;;;;;23.25;16.25;;;;;8.85;84.86;101484.56;5013252;28;45896;-70
2021/10/28 05:27:04;;;;;;;;;16.00;16.00;;;;;8.89;84.92;101496.69;5014578;28;45392;-71
2021/10/28 05:29:30;;;;;;;;;21.25;15.50;;;;;8.88;84.84;101493.22;5014132;28;45339;-71
2021/10/28 05:31:55;;;;;;;;;18.00;14.50;;;;;8.89;84.98;101496.69;4995515;28;45407;-71
2021/10/28 05:34:21;;;;;;;;;15.50;15.25;;;;;8.86;84.86;101494.13;5012039;28;46925;-70
2021/10/28 05:36:47;;;;;;;;;20.75;15.75;;;;;8.86;85.07;101499.38;4995917;28;45534;-71
2021/10/28 05:39:12;;;;;;;;;19.50;17.00;;;;;8.85;85.24;101492.41;5014574;28;45522;-71
2021/10/28 05:41:38;;;;;;;;;17.75;15.25;;;;;8.88;85.25;101505.47;5014039;28;45483;-71
2021/10/28 05:44:03;;;;;;;;;18.00;16.00;;;;;8.86;85.21;101496.75;5013610;28;45831;-70
2021/10/28 05:46:29;;;;;;;;;22.00;17.75;;;;;8.86;85.20;101495.00;5013311;28;45554;-70
2021/10/28 05:48:54;;;;;;;;;19.00;16.50;;;;;8.85;85.42;101495.03;5018848;28;45468;-71
2021/10/28 05:51:20;;;;;;;;;18.75;14.25;;;;;8.83;85.29;101492.47;5021116;28;45527;-71
2021/10/28 05:53:47;;;;;;;;;14.00;8.75;;;;;8.82;85.46;101485.50;5019817;28;47072;-71
2021/10/28 05:56:13;;;;;;;;;24.00;17.00;;;;;8.85;85.22;101492.41;5018666;28;45281;-71
2021/10/28 05:58:38;;;;;;;;;17.00;14.25;;;;;8.75;85.60;101473.44;5020054;28;45578;-71
2021/10/28 06:01:04;;;;;;;;;18.00;16.33;;;;;8.83;85.35;101483.75;5019252;28;48767;-71
2021/10/28 06:03:31;;;;;;;;;24.50;18.75;;;;;8.82;85.87;101488.13;5019089;28;45603;-70
2021/10/28 06:05:56;;;;;;;;;21.00;17.00;;;;;8.81;85.33;101481.13;5019534;28;45593;-71
2021/10/28 06:08:22;;;;;;;;;15.25;13.75;;;;;8.81;85.52;101485.53;5019624;28;45297;-70
2021/10/28 06:10:47;;;;;;;;;27.75;19.00;;;;;8.81;85.59;101486.38;5020376;28;45538;-71
2021/10/28 06:13:12;;;;;;;;;23.25;16.25;;;;;8.83;85.76;101492.47;5020356;28;46246;-71
2021/10/28 06:15:38;;;;;;;;;20.00;16.50;;;;;8.82;85.77;101482.88;5001824;28;45518;-71
2021/10/28 06:20:42;;;;;;;;;21.00;16.25;;;;;8.81;85.93;101475.91;5019338;28;45491;-70
2021/10/28 06:23:08;;;;;;;;;23.25;17.00;;;;;8.81;85.88;101481.13;5019268;28;47040;-70
2021/10/28 06:25:34;;;;;;;;;22.50;17.00;;;;;8.81;85.81;101481.13;5018723;28;45368;-71
2021/10/28 06:28:00;;;;;;;;;21.75;17.00;;;;;8.81;85.84;101480.28;5019128;28;45477;-71
2021/10/28 06:30:26;;;;;;;;;21.25;17.25;;;;;8.73;85.45;101467.38;5020042;28;45478;-71
2021/10/28 06:32:55;;;;;;;;;21.75;16.75;;;;;8.80;85.62;101483.81;5019140;28;46491;-71
2021/10/28 06:35:21;;;;;;;;;19.00;16.25;;;;;8.79;85.85;101495.19;5019719;28;45435;-71
2021/10/28 06:37:49;;;;;;;;;22.00;18.25;;;;;8.83;85.54;101500.34;5020299;28;45377;-71
2021/10/28 06:40:16;;;;;;;;;23.50;18.75;;;;;8.82;85.38;101501.22;5018883;28;45684;-71
2021/10/28 06:42:42;;;;;;;;;22.25;16.50;;;;;8.76;85.72;101485.63;5019860;28;46969;-71
2021/10/28 06:45:07;;;;;;;;;21.75;18.25;;;;;8.85;85.75;101488.03;5018313;28;45468;-71
2021/10/28 06:47:33;;;;;;;;;19.25;16.75;;;;;8.85;85.83;101495.91;4999355;28;45660;-72
2021/10/28 06:50:05;;;;;;;;;17.75;16.25;;;;;8.87;85.68;101499.38;5018002;28;45815;-71
2021/10/28 06:52:45;;;;;;;;;25.75;22.00;;;;;8.90;85.58;101503.66;5023287;28;47421;-72
2021/10/28 06:55:11;;;;;;;;;21.25;12.50;;;;;8.90;85.75;101498.41;5018369;28;45600;-72
2021/10/28 07:03:03;;;;;;;;;20.75;16.50;;;;;9.06;85.33;101502.41;5022464;28;45451;-72
2021/10/28 07:05:29;;;;;;;;;17.67;17.33;;;;;9.11;85.48;101497.03;5017546;28;49424;-72
2021/10/28 07:07:54;;;;;;;;;17.50;17.50;;;;;9.20;85.43;101498.59;5020154;28;45656;-71
2021/10/28 07:10:22;;;;;;;;;25.50;20.00;;;;;9.31;85.04;101492.16;5022101;28;45656;-71
2021/10/28 07:13:03;;;;;;;;;23.00;17.25;;;;;9.70;85.63;101485.88;5012045;28;45706;-71
2021/10/28 07:16:17;;;;;;;;;22.25;18.50;;;;;10.68;84.38;101489.16;5012131;28;45999;-70
2021/10/28 07:18:22;;;;;;;;;16.25;15.75;;;;;11.46;82.88;101479.56;4989365;28;46107;-71
2021/10/28 07:39:15;;;;;;;;;21.00;17.50;;;;;17.14;71.44;101493.81;5001719;28;45483;-71
2021/10/28 08:06:16;;;;;;;;;18.50;17.00;;;;;24.33;52.93;101474.78;4942855;28;45531;-71
2021/10/28 08:21:55;;;;;;;;;20.25;19.50;;;;;30.17;43.71;101469.19;4945447;28;45634;-71
2021/10/28 08:29:48;;;;;;;;;32.50;25.50;;;;;31.25;40.45;101479.19;4954381;28;45728;-72
2021/10/28 08:32:15;;;;;;;;;18.50;17.75;;;;;31.68;39.52;101466.72;4949708;28;45481;-72
2021/10/28 08:34:41;;;;;;;;;20.00;18.00;;;;;32.21;38.28;101470.19;4956603;28;45615;-71
2021/10/28 08:39:36;;;;;;;;;21.75;17.75;;;;;33.23;37.80;101456.44;4957295;28;45842;-72
2021/10/28 08:42:06;;;;;;;;;18.50;18.25;;;;;33.91;35.64;101457.53;5014356;28;45416;-71
2021/10/28 08:44:34;;;;;;;;;17.00;15.25;;;;;34.33;34.95;101458.38;5024991;28;45348;-71
2021/10/28 08:47:01;;;;;;;;;16.00;16.00;;;;;34.49;34.14;101449.00;5023956;28;46394;-72
2021/10/28 08:49:40;;;;;;;;;21.50;16.50;;;;;34.73;35.35;101451.16;5015996;28;45666;-72
2021/10/28 08:57:26;;;;;;;;;19.75;19.00;;;;;36.14;31.92;101444.50;5018182;28;46086;-72
2021/10/28 09:19:42;;;;;;;;;18.00;16.00;;;;;38.15;27.30;101419.56;5007996;28;45511;-72
2021/10/28 09:25:06;;;;;;;;;13.50;13.00;;;;;38.27;26.99;101403.16;5005728;28;46703;-72
2021/10/28 09:27:44;;;;;;;;;17.00;15.25;;;;;38.67;27.45;101403.41;5027306;28;45831;-72
2021/10/28 09:30:29;;;;;;;;;14.50;13.50;;;;;38.94;25.75;101403.81;5020268;28;47061;-71
2021/10/28 09:33:05;;;;;;;;;16.25;14.75;;;;;39.00;25.36;101404.78;5026102;28;45433;-72
2021/10/28 09:35:52;;;;;;;;;17.50;15.75;;;;;38.75;24.67;101397.63;5012623;28;45416;-72
2021/10/28 09:43:58;;;;;;;;;17.25;14.50;;;;;37.91;25.32;101398.59;5012048;28;45541;-73
2021/10/28 09:59:41;;;;;;;;;12.50;12.50;;;;;34.31;27.38;101391.44;5028923;28;47063;-72
2021/10/28 10:02:16;;;;;;;;;11.50;11.50;;;;;33.58;27.76;101391.13;5017713;28;46560;-72
2021/10/28 10:04:44;;;;;;;;;15.00;13.00;;;;;32.68;29.18;101390.81;5017409;28;45375;-72
2021/10/28 10:07:11;;;;;;;;;15.75;13.00;;;;;32.10;29.99;101380.94;5018646;28;45544;-72
2021/10/28 10:09:40;;;;;;;;;14.00;13.50;;;;;31.61;30.31;101379.69;5015736;28;45415;-72
2021/10/28 10:12:09;;;;;;;;;10.75;10.75;;;;;31.08;30.85;101378.06;5016802;28;45391;-72
2021/10/28 10:14:39;;;;;;;;;11.25;11.00;;;;;30.42;31.45;101365.00;5015037;28;45435;-71
2021/10/28 10:17:08;;;;;;;;;14.00;10.75;;;;;29.94;31.66;101349.00;5019798;28;45502;-72
2021/10/28 10:19:42;;;;;;;;;47.25;38.50;;;;;29.30;32.32;101360.75;5016903;28;45578;-72
2021/10/28 12:28:28;;;;;;;;;10.50;10.50;;;;;21.91;46.23;101149.81;4953627;28;45461;-71
2021/10/28 12:56:11;;;;;;;;;13.75;8.00;;;;;21.42;47.21;101095.06;4952457;28;45501;-71
2021/10/28 13:58:05;;;;;;;;;7.75;6.25;;;;;20.34;47.49;101012.03;5013420;28;45533;-72
2021/10/28 15:52:38;;;;;;;;;7.50;5.25;;;;;18.57;49.48;100920.75;4895873;29;45536;-71
2021/10/28 15:57:11;;;;;;;;;7.75;5.25;;;;;18.44;49.76;100904.88;4895304;28;45430;-71
2021/10/28 16:21:47;;;;;;;;;12.00;7.50;;;;;18.34;49.94;100893.19;4955880;28;45577;-71
2021/10/28 16:24:00;;;;;;;;;7.50;6.00;;;;;17.85;51.04;100876.28;5013754;28;45530;-71
2021/10/28 16:26:31;;;;;;;;;88.75;76.75;;;;;17.79;51.39;100875.88;5021588;28;45530;-72
2021/10/28 16:28:56;;;;;;;;;12.25;9.50;;;;;17.71;51.53;100871.06;5017675;28;45738;-71
2021/10/28 16:31:21;;;;;;;;;6.25;6.00;;;;;17.67;51.44;100877.56;5018803;28;45725;-71
2021/10/28 16:33:47;;;;;;;;;6.50;6.25;;;;;17.64;51.32;100872.44;5020377;28;45360;-71
2021/10/28 16:36:12;;;;;;;;;9.00;6.50;;;;;17.58;51.53;100868.41;5018564;28;47320;-71
2021/10/28 16:38:38;;;;;;;;;14.00;7.25;;;;;17.47;51.59;100853.22;5019147;28;45333;-71
2021/10/28 16:41:03;;;;;;;;;8.00;6.75;;;;;17.46;51.63;100862.16;5025343;28;45348;-71
2021/10/28 16:43:29;;;;;;;;;9.50;7.75;;;;;17.46;51.66;100869.28;5024241;28;45534;-71
2021/10/28 16:45:54;;;;;;;;;6.00;6.00;;;;;17.32;52.01;100856.09;5015253;28;46307;-71
2021/10/28 16:48:19;;;;;;;;;9.00;8.00;;;;;17.34;52.07;100864.81;5019608;28;45432;-71
2021/10/28 16:50:45;;;;;;;;;12.25;8.75;;;;;17.29;52.19;100865.13;5023212;28;45517;-71
2021/10/28 16:53:10;;;;;;;;;10.50;10.50;;;;;17.24;52.58;100856.63;5018170;28;45558;-71
2021/10/28 16:55:36;;;;;;;;;7.00;6.75;;;;;17.16;52.31;100856.28;5016514;28;47030;-71
2021/10/28 16:58:02;;;;;;;;;9.00;8.75;;;;;17.12;52.24;100854.81;5013708;28;45523;-72
2021/10/28 17:00:28;;;;;;;;;8.25;8.00;;;;;17.07;52.81;100851.59;5017554;28;45432;-72
2021/10/28 17:02:53;;;;;;;;;11.75;8.00;;;;;17.02;53.06;100856.38;5016065;28;45404;-73
2021/10/28 17:05:19;;;;;;;;;8.75;8.25;;;;;16.95;53.22;100853.31;5016756;28;49511;-72
2021/10/28 17:07:45;;;;;;;;;9.25;8.00;;;;;16.92;53.38;100859.69;5016554;28;45308;-72
2021/10/28 17:10:10;;;;;;;;;9.25;8.00;;;;;16.86;53.60;100857.44;5013339;28;45390;-71
2021/10/28 17:12:36;;;;;;;;;9.00;8.00;;;;;16.82;53.75;100861.25;5012718;28;45467;-71
2021/10/28 17:15:06;;;;;;;;;7.50;7.50;;;;;16.78;53.93;100866.88;5018692;28;46471;-72
2021/10/28 17:17:33;;;;;;;;;8.50;8.25;;;;;16.72;54.17;100854.00;5017671;28;45340;-72
2021/10/28 17:20:05;;;;;;;;;12.25;9.50;;;;;16.70;54.23;100856.72;5017436;28;45694;-72
2021/10/28 17:22:30;;;;;;;;;7.25;7.25;;;;;16.67;54.31;100862.25;4997292;28;45497;-72
2021/10/28 17:24:58;;;;;;;;;14.25;11.00;;;;;16.62;54.29;100854.59;5019462;28;46123;-72
2021/10/28 17:27:23;;;;;;;;;12.25;11.75;;;;;16.62;54.38;100859.03;5013411;28;45824;-72
2021/10/28 17:29:48;;;;;;;;;13.00;12.00;;;;;16.57;54.53;100853.19;5017280;28;45491;-72
2021/10/28 17:32:14;;;;;;;;;10.50;9.00;;;;;16.52;54.84;100850.84;5015285;28;45840;-71
2021/10/28 17:34:39;;;;;;;;;13.00;10.75;;;;;16.51;54.77;100856.25;5016676;28;51627;-71
2021/10/28 17:37:05;;;;;;;;;30.00;25.00;;;;;16.44;55.30;100851.34;5012746;28;45516;-71
2021/10/28 17:39:31;;;;;;;;;10.25;9.00;;;;;16.44;55.56;100858.44;5009441;28;45506;-73
2021/10/28 17:41:58;;;;;;;;;10.75;8.50;;;;;16.40;55.68;100854.31;5012087;28;45596;-71
2021/10/28 17:44:51;;;;;;;;;10.00;8.25;;;;;16.34;55.67;100847.59;5014396;28;45377;-72
2021/10/28 17:47:17;;;;;;;;;11.00;11.00;;;;;16.32;55.44;100853.94;5014006;28;45943;-74
2021/10/28 17:49:42;;;;;;;;;9.00;9.00;;;;;16.28;55.79;100850.63;5012222;28;45410;-72
2021/10/28 17:52:08;;;;;;;;;10.75;10.00;;;;;16.26;55.96;100855.19;4993153;28;45634;-72
2021/10/28 17:54:35;;;;;;;;;9.50;9.50;;;;;16.23;56.05;100852.72;5019386;28;45571;-71
2021/10/28 17:57:01;;;;;;;;;10.50;9.50;;;;;16.20;55.81;100850.28;5018500;28;45443;-72
2021/10/28 17:59:26;;;;;;;;;13.25;9.25;;;;;16.16;56.12;100846.97;5016726;28;45530;-72
2021/10/28 18:01:52;;;;;;;;;12.50;10.25;;;;;16.12;56.59;100844.59;5013350;28;45846;-72
2021/10/28 18:04:17;;;;;;;;;12.25;10.75;;;;;16.12;56.26;100848.09;5012399;28;46145;-71
2021/10/28 18:06:43;;;;;;;;;11.50;8.75;;;;;16.09;56.43;100858.09;5018586;28;45496;-72
2021/10/28 18:09:09;;;;;;;;;9.75;9.25;;;;;16.04;56.54;100847.78;5013368;28;45549;-72
2021/10/28 18:11:34;;;;;;;;;13.00;10.00;;;;;16.01;56.79;100845.31;5018375;28;45599;-72
2021/10/28 18:14:01;;;;;;;;;14.75;12.00;;;;;15.99;57.00;100843.72;5011427;28;46574;-72
2021/10/28 18:16:29;;;;;;;;;13.00;12.00;;;;;15.95;56.77;100836.91;5009551;28;45542;-72
2021/10/28 18:18:56;;;;;;;;;16.75;14.50;;;;;15.92;57.31;100845.88;5007804;28;45345;-72
2021/10/28 18:21:23;;;;;;;;;13.25;13.25;;;;;15.91;57.23;100847.69;5010853;28;45495;-72
2021/10/28 18:23:49;;;;;;;;;17.25;14.50;;;;;15.87;57.21;100840.91;5010178;28;45827;-72
2021/10/28 18:26:19;;;;;;;;;21.50;14.75;;;;;15.84;57.16;100841.06;5009852;28;45763;-72
2021/10/28 18:28:45;;;;;;;;;19.00;14.50;;;;;15.81;57.78;100837.75;5009680;28;45544;-72
2021/10/28 18:31:11;;;;;;;;;15.50;15.50;;;;;15.78;57.84;100838.81;5010264;28;45452;-73
2021/10/28 18:33:36;;;;;;;;;21.25;18.00;;;;;15.72;57.95;100833.91;5006863;28;46711;-73
2021/10/28 18:36:04;;;;;;;;;16.75;14.50;;;;;15.66;58.41;100829.00;5008573;28;45511;-72
2021/10/28 18:38:32;;;;;;;;;15.00;13.25;;;;;15.62;58.40;100836.25;5007217;28;45512;-73
2021/10/28 18:40:58;;;;;;;;;14.75;13.25;;;;;15.58;58.17;100834.72;5010049;28;45587;-72
2021/10/28 18:43:23;;;;;;;;;19.00;14.75;;;;;15.53;58.74;100830.66;5008218;28;46105;-72
2021/10/28 18:45:49;;;;;;;;;18.75;13.75;;;;;15.45;58.57;100828.47;5009046;28;45533;-72
2021/10/28 18:48:15;;;;;;;;;15.25;13.50;;;;;15.44;58.73;100833.88;5010441;28;45440;-72
2021/10/28 18:50:41;;;;;;;;;18.25;15.00;;;;;15.41;59.21;100832.28;5010546;28;45463;-72
2021/10/28 18:53:06;;;;;;;;;23.00;20.75;;;;;15.38;59.14;100835.97;5014880;28;47534;-73
2021/10/28 18:55:31;;;;;;;;;18.50;18.50;;;;;15.35;59.15;100833.50;5012680;28;45474;-72
2021/10/28 18:57:57;;;;;;;;;13.50;13.50;;;;;15.31;59.92;100825.84;5019438;28;45502;-72
2021/10/28 19:00:23;;;;;;;;;16.00;15.00;;;;;15.28;59.51;100837.47;5021324;28;45480;-72
2021/10/28 19:02:49;;;;;;;;;14.50;12.25;;;;;15.22;59.67;100814.00;5017855;28;46220;-71
2021/10/28 19:05:15;;;;;;;;;18.75;14.75;;;;;15.20;59.70;100818.56;5013502;28;45493;-71
2021/10/28 19:07:42;;;;;;;;;22.50;18.00;;;;;15.16;59.89;100808.25;5022958;28;45854;-72
2021/10/28 19:10:08;;;;;;;;;16.25;14.00;;;;;15.10;59.73;100806.81;5019970;28;45887;-71
2021/10/28 19:12:33;;;;;;;;;18.75;15.00;;;;;15.06;60.00;100800.84;5016628;28;46069;-71
2021/10/28 19:14:59;;;;;;;;;14.75;12.25;;;;;15.07;60.32;100807.00;5017009;28;45523;-71
2021/10/28 19:17:24;;;;;;;;;15.75;11.50;;;;;15.01;60.53;100808.22;5005546;28;45672;-71
2021/10/28 19:19:50;;;;;;;;;17.75;15.00;;;;;14.97;60.35;100805.84;5009223;28;45411;-71
2021/10/28 19:22:15;;;;;;;;;17.75;14.00;;;;;14.93;60.65;100806.97;5016182;28;46355;-71
2021/10/28 19:24:40;;;;;;;;;17.75;15.25;;;;;14.85;60.80;100800.34;5014099;28;45376;-71
2021/10/28 19:27:06;;;;;;;;;16.50;15.50;;;;;14.83;60.94;100798.75;5017546;28;45884;-71
2021/10/28 19:29:36;;;;;;;;;20.00;14.50;;;;;14.77;61.03;100802.63;5022247;28;45549;-71
2021/10/28 19:32:10;;;;;;;;;16.75;14.75;;;;;14.74;61.46;100802.78;5020362;28;47422;-71
2021/10/28 19:34:39;;;;;;;;;15.00;14.00;;;;;14.68;61.33;100803.16;5019268;28;45383;-71
2021/10/28 19:37:23;;;;;;;;;15.25;15.25;;;;;14.64;61.71;100793.69;5013795;28;45590;-72
2021/10/28 19:48:03;;;;;;;;;15.00;12.25;;;;;14.52;61.79;100789.13;5017569;28;45308;-70
2021/10/28 19:50:28;;;;;;;;;16.50;11.75;;;;;14.44;61.73;100772.81;5016850;28;45573;-71
2021/10/28 19:52:53;;;;;;;;;14.75;12.75;;;;;14.48;61.88;100785.81;5016831;28;46465;-71
2021/10/28 19:55:20;;;;;;;;;11.75;10.25;;;;;14.47;62.17;100781.47;5015743;28;45608;-71
2021/10/28 19:57:51;;;;;;;;;18.00;15.50;;;;;14.45;62.07;100780.66;5014153;28;45524;-71
2021/10/28 20:21:28;;;;;;;;;14.25;12.00;;;;;14.20;63.41;100767.16;5021849;28;45486;-70
2021/10/28 20:23:53;;;;;;;;;15.75;14.00;;;;;14.17;63.35;100769.97;5016773;28;45416;-71
2021/10/28 20:26:20;;;;;;;;;15.00;15.00;;;;;14.17;63.40;100773.47;5017543;28;45578;-71
2021/10/28 20:28:51;;;;;;;;;17.75;14.00;;;;;14.16;63.31;100781.50;5015605;28;45822;-71
2021/10/28 20:31:19;;;;;;;;;13.75;12.25;;;;;14.12;63.45;100766.75;5012500;28;46719;-70
2021/10/28 20:34:10;;;;;;;;;17.00;14.50;;;;;14.10;63.76;100769.50;5020142;28;46668;-71
2021/10/28 20:39:29;;;;;;;;;14.25;13.75;;;;;14.06;64.00;100766.16;5003537;28;45489;-71